Surface observations / UK / EGOM

Quebec | Canada | USA | France | UK | Europe | Elsewhere

Display: Info & Location for EGOM | Help decoding METAR


Raw surface observations for station EGOM
EGOM 230750Z AUTO 18003KT 9999 FEW013/// SCT030/// 10/06 Q1025=
EGOM 230650Z AUTO 06002KT 9999 BKN030/// 09/07 Q1025=
EGOM 230550Z AUTO 25002KT 8000 OVC011/// 07/06 Q1025=
EGOM 230450Z AUTO 27004KT 3400 FEW001/// BKN012/// 05/04 Q1025=
EGOM 230350Z AUTO 26005KT 0550 FG FEW016/// BKN024/// 04/04 Q1024=
EGOM 230250Z AUTO 27005KT 4300 BR BKN025/// BKN031/// 05/04 Q1024=
EGOM 230150Z AUTO 26005KT 9000 BR FEW023/// BKN034/// 06/05 Q1024=
EGOM 230050Z AUTO 26004KT 9999 BKN025/// 07/05 Q1024=
EGOM 222350Z AUTO 29003KT 9999 BKN030/// SCT034/// 06/05 Q1024=
EGOM 222250Z AUTO 27006KT 9999 FEW070/// 06/04 Q1024=
EGOM 222150Z AUTO 25007KT 9999 SCT070/// 07/04 Q1024=
EGOM 222050Z AUTO 28010KT 9999 BKN070/// 09/06 Q1023=
EGOM 221950Z AUTO 26009KT 9999 NCD 11/06 Q1023=
EGOM 221850Z AUTO 29013KT 9999 FEW070/// 12/06 Q1022=
EGOM 221750Z AUTO 26014KT 9999 FEW027/// SCT031/// BKN060/// 14/08 Q1021=
EGOM 221650Z AUTO 27015KT 9999 SCT015/// BKN022/// 14/10 Q1021=
EGOM 221550Z AUTO 25018KT 9999 FEW013/// SCT017/// 14/11 Q1021=
EGOM 221450Z AUTO 25015KT 9999 FEW003/// BKN018/// 14/12 Q1020=
EGOM 221350Z AUTO 25017KT 8000 BR OVC003/// 12/12 Q1020 RERA=
EGOM 221250Z AUTO 25019KT 2900 BR OVC002/// 12/11 Q1020=
EGOM 221150Z AUTO 24018KT 9999 OVC003/// 11/11 Q1020 RERA=
EGOM 221050Z AUTO 24016KT 9999 OVC002/// 12/11 Q1020=
EGOM 220950Z AUTO 24018KT 5000 BR OVC001/// 11/11 Q1020 REDZ=
EGOM 220850Z AUTO 24015KT 0150 -DZ VV/// 11/11 Q1021=
EGOM 220750Z AUTO 25013KT 0150 -DZ VV/// 11/11 Q1021=